Time;durP1;ratioP1;P1;durP2;ratioP2;P2;SDS_P1;SDS_P2;PMS_P1;PMS_P2;Temp;Humidity;BMP_temperature;BMP_pressure;BME280_temperature;BME280_humidity;BME280_pressure;Samples;Min_cycle;Max_cycle;Signal;HPM_P1;HPM_P2
2022/04/05 00:00:40;;;;;;;9.63;4.47;;;11.20;70.10;;;;;;1935761;74;21031;-51
2022/04/05 00:03:09;;;;;;;5.00;3.90;;;11.20;70.00;;;;;;1935807;74;21015;-50
2022/04/05 00:05:39;;;;;;;7.22;4.17;;;11.20;70.40;;;;;;1935747;74;21011;-54
2022/04/05 00:08:08;;;;;;;5.03;3.58;;;11.20;70.30;;;;;;1935786;74;21027;-50
2022/04/05 00:10:38;;;;;;;5.20;3.60;;;11.20;71.00;;;;;;1935537;74;21023;-52
2022/04/05 00:13:08;;;;;;;5.22;4.15;;;11.30;70.60;;;;;;1935747;74;21023;-52
2022/04/05 00:15:37;;;;;;;5.78;4.12;;;11.30;70.00;;;;;;1935731;74;21043;-53
2022/04/05 00:18:07;;;;;;;6.92;4.72;;;11.30;69.50;;;;;;1935745;74;21047;-52
2022/04/05 00:20:37;;;;;;;7.08;4.30;;;11.20;68.90;;;;;;1935645;74;21092;-51
2022/04/05 00:23:06;;;;;;;5.42;4.45;;;11.10;69.50;;;;;;1935723;74;21015;-50
2022/04/05 00:25:35;;;;;;;6.92;4.53;;;11.10;70.10;;;;;;1935731;74;21097;-53
2022/04/05 00:28:05;;;;;;;5.78;4.22;;;11.10;70.20;;;;;;1935667;74;21143;-52
2022/04/05 00:30:34;;;;;;;5.80;4.47;;;11.10;70.60;;;;;;1935688;74;20995;-54
2022/04/05 00:33:03;;;;;;;6.10;4.37;;;11.20;70.90;;;;;;1935666;74;21027;-53
2022/04/05 00:35:32;;;;;;;8.33;5.10;;;11.30;70.90;;;;;;1935589;74;20995;-51
2022/04/05 00:38:02;;;;;;;7.65;4.65;;;11.30;70.80;;;;;;1935744;74;21015;-52
2022/04/05 00:40:31;;;;;;;9.13;4.83;;;11.30;70.60;;;;;;1935766;74;21019;-52
2022/04/05 00:43:03;;;;;;;7.53;5.10;;;11.30;70.60;;;;;;1935767;74;21088;-50
2022/04/05 00:45:32;;;;;;;7.55;4.92;;;11.30;70.40;;;;;;1935553;74;21548;-53
2022/04/05 00:48:04;;;;;;;12.65;5.33;;;11.30;70.40;;;;;;1935767;74;21105;-53
2022/04/05 00:50:36;;;;;;;6.35;4.80;;;11.20;70.90;;;;;;1935632;74;21051;-51
2022/04/05 00:53:07;;;;;;;6.67;4.62;;;11.20;70.90;;;;;;1935772;74;21058;-50
2022/04/05 00:55:38;;;;;;;6.50;5.10;;;11.30;71.20;;;;;;1935709;74;21097;-52
2022/04/05 00:58:09;;;;;;;7.67;5.12;;;11.30;71.10;;;;;;1935675;74;21535;-53
2022/04/05 01:00:39;;;;;;;6.33;4.70;;;11.30;71.00;;;;;;1935629;74;21023;-52
2022/04/05 01:03:09;;;;;;;7.10;4.67;;;11.30;71.10;;;;;;1935695;74;21067;-54
2022/04/05 01:05:40;;;;;;;6.50;4.20;;;11.40;71.30;;;;;;1935693;74;21090;-51
2022/04/05 01:08:11;;;;;;;9.80;4.80;;;11.40;71.50;;;;;;1935732;74;21116;-53
2022/04/05 01:10:42;;;;;;;5.72;4.53;;;11.40;71.50;;;;;;1935569;74;21015;-54
2022/04/05 01:13:11;;;;;;;5.05;4.45;;;11.50;71.70;;;;;;1935752;74;21105;-51
2022/04/05 01:15:41;;;;;;;7.53;4.33;;;11.50;71.80;;;;;;1935719;74;21120;-54
2022/04/05 01:18:11;;;;;;;7.42;4.58;;;11.50;71.20;;;;;;1935857;74;21031;-50
2022/04/05 01:20:40;;;;;;;6.42;3.65;;;11.40;69.70;;;;;;1935768;74;21023;-53
2022/04/05 01:23:09;;;;;;;3.65;3.33;;;11.30;69.10;;;;;;1935844;74;21132;-53
2022/04/05 01:25:42;;;;;;;5.28;3.65;;;11.20;68.60;;;;;;1935912;74;21495;-52
2022/04/05 01:28:11;;;;;;;6.72;3.80;;;11.10;68.60;;;;;;1935889;74;21085;-51
2022/04/05 01:30:40;;;;;;;9.05;3.70;;;10.90;68.50;;;;;;1935694;74;21088;-51
2022/04/05 01:33:10;;;;;;;4.92;3.67;;;10.80;68.40;;;;;;1935702;74;21113;-54
2022/04/05 01:35:40;;;;;;;6.20;3.77;;;10.60;68.70;;;;;;1935677;74;21100;-54
2022/04/05 01:38:10;;;;;;;6.55;3.67;;;10.60;69.30;;;;;;1935860;74;21096;-50
2022/04/05 01:40:39;;;;;;;4.08;3.67;;;10.50;69.50;;;;;;1935684;74;21015;-53
2022/04/05 01:43:09;;;;;;;6.67;4.10;;;10.40;69.80;;;;;;1935775;74;21101;-52
2022/04/05 01:45:38;;;;;;;7.70;4.30;;;10.40;69.90;;;;;;1935637;74;21019;-52
2022/04/05 01:48:08;;;;;;;5.87;3.77;;;10.30;70.10;;;;;;1935722;74;21093;-53
2022/04/05 01:50:37;;;;;;;6.62;3.75;;;10.30;70.10;;;;;;1935657;74;21089;-52
2022/04/05 01:53:07;;;;;;;7.10;3.70;;;10.30;70.30;;;;;;1935829;74;21031;-53
2022/04/05 01:55:36;;;;;;;4.47;3.83;;;10.20;70.20;;;;;;1935723;74;21027;-51
2022/04/05 01:58:06;;;;;;;6.20;4.17;;;10.10;70.30;;;;;;1935851;74;21184;-52
2022/04/05 02:00:35;;;;;;;6.37;3.60;;;10.10;70.60;;;;;;1935663;74;21087;-51
2022/04/05 02:03:05;;;;;;;4.78;3.52;;;10.10;70.50;;;;;;1935804;74;21063;-53
2022/04/05 02:05:34;;;;;;;17.73;5.83;;;10.00;70.40;;;;;;1935709;74;21027;-53
2022/04/05 02:08:03;;;;;;;7.53;3.85;;;10.00;70.60;;;;;;1935741;74;21023;-53
2022/04/05 02:10:32;;;;;;;6.25;3.22;;;9.80;70.60;;;;;;1935675;74;21023;-52
2022/04/05 02:13:02;;;;;;;6.25;3.50;;;9.70;71.20;;;;;;1935862;74;21122;-52
2022/04/05 02:15:38;;;;;;;5.83;4.15;;;9.50;71.40;;;;;;1934914;74;21081;-53
2022/04/05 02:18:10;;;;;;;8.85;3.75;;;9.50;71.40;;;;;;1947020;74;21555;-53
2022/04/05 02:20:41;;;;;;;7.80;4.05;;;9.30;71.50;;;;;;1948939;74;21039;-50
2022/04/05 02:23:10;;;;;;;7.05;5.10;;;9.30;71.60;;;;;;1948757;74;21104;-51
2022/04/05 02:25:41;;;;;;;11.20;7.30;;;9.30;71.30;;;;;;1946559;74;21075;-51
2022/04/05 02:28:11;;;;;;;6.47;4.55;;;9.30;71.60;;;;;;1948911;74;21112;-53
2022/04/05 02:30:42;;;;;;;7.22;4.60;;;9.20;71.40;;;;;;1947582;74;21071;-52
2022/04/05 02:33:13;;;;;;;8.50;5.85;;;9.10;71.50;;;;;;1948887;74;21030;-51
2022/04/05 02:35:43;;;;;;;8.10;5.30;;;9.10;71.80;;;;;;1948782;74;20998;-52
2022/04/05 02:38:13;;;;;;;9.83;5.87;;;9.00;71.90;;;;;;1948776;74;21014;-53
2022/04/05 02:40:43;;;;;;;8.93;5.83;;;9.00;71.70;;;;;;1948908;74;21117;-52
2022/04/05 02:43:14;;;;;;;9.50;5.78;;;8.80;72.10;;;;;;1948809;74;21547;-51
2022/04/05 02:45:44;;;;;;;8.33;5.92;;;8.80;72.20;;;;;;1948740;73;21023;-53
2022/04/05 02:48:14;;;;;;;8.60;6.10;;;8.80;72.60;;;;;;1948985;74;21441;-51
2022/04/05 02:50:44;;;;;;;9.23;5.53;;;8.90;73.30;;;;;;1948702;74;21066;-53
2022/04/05 02:53:14;;;;;;;11.45;5.90;;;8.80;72.30;;;;;;1948857;74;21018;-54
2022/04/05 02:55:43;;;;;;;7.95;5.67;;;8.80;72.20;;;;;;1948681;74;21029;-54
2022/04/05 02:58:13;;;;;;;10.43;5.75;;;8.80;72.30;;;;;;1912162;74;21014;-52
2022/04/05 03:00:43;;;;;;;7.65;5.58;;;8.80;71.80;;;;;;1948688;74;21038;-53
2022/04/05 03:03:14;;;;;;;8.88;5.80;;;8.70;71.40;;;;;;1948526;74;21093;-52
2022/04/05 03:05:45;;;;;;;8.25;5.28;;;8.70;71.70;;;;;;1947346;73;21046;-53
2022/04/05 03:08:14;;;;;;;8.60;5.55;;;8.70;71.70;;;;;;1948749;74;21015;-53
2022/04/05 03:10:44;;;;;;;8.90;5.30;;;8.80;72.20;;;;;;1948682;74;21022;-52
2022/04/05 03:13:13;;;;;;;7.70;5.55;;;8.90;72.30;;;;;;1948817;74;21022;-53
2022/04/05 03:15:43;;;;;;;8.05;5.53;;;8.90;71.70;;;;;;1948790;74;21034;-52
2022/04/05 03:18:13;;;;;;;9.63;6.17;;;8.90;71.70;;;;;;1940354;74;21141;-52
2022/04/05 03:20:43;;;;;;;8.55;4.95;;;8.90;71.80;;;;;;1935687;74;21089;-52
2022/04/05 03:23:13;;;;;;;7.22;5.12;;;8.80;71.00;;;;;;1935716;74;21019;-52
2022/04/05 03:25:43;;;;;;;9.05;4.72;;;8.70;71.10;;;;;;1935699;74;21000;-50
2022/04/05 03:28:12;;;;;;;8.15;4.87;;;8.70;70.70;;;;;;1935752;74;20996;-52
2022/04/05 03:30:42;;;;;;;10.95;5.50;;;8.60;71.00;;;;;;1935591;74;21086;-52
2022/04/05 03:33:11;;;;;;;14.80;10.08;;;8.50;71.20;;;;;;1935767;74;21051;-52
2022/04/05 03:35:41;;;;;;;17.67;10.72;;;8.40;71.00;;;;;;1935717;74;20999;-50
2022/04/05 03:38:11;;;;;;;8.95;6.40;;;8.40;71.30;;;;;;1935718;74;21100;-52
2022/04/05 03:40:40;;;;;;;10.95;4.97;;;8.30;71.30;;;;;;1935623;74;21097;-52
2022/04/05 03:43:12;;;;;;;8.38;5.60;;;8.30;71.60;;;;;;1935625;74;21109;-53
2022/04/05 03:45:42;;;;;;;10.18;5.65;;;8.30;71.70;;;;;;1935682;74;21035;-53
2022/04/05 03:48:12;;;;;;;6.85;5.58;;;8.30;72.20;;;;;;1935675;74;21031;-52
2022/04/05 03:50:42;;;;;;;8.75;5.87;;;8.40;71.90;;;;;;1935524;74;21105;-51
2022/04/05 03:53:11;;;;;;;9.28;6.78;;;8.40;71.30;;;;;;1935751;74;21105;-53
2022/04/05 03:55:42;;;;;;;8.48;5.42;;;8.40;71.40;;;;;;1935594;74;21023;-54
2022/04/05 03:58:13;;;;;;;9.40;5.55;;;8.30;71.40;;;;;;1935848;74;21019;-49
2022/04/05 04:00:43;;;;;;;12.75;5.70;;;8.40;71.30;;;;;;1935639;74;21098;-53
2022/04/05 04:03:17;;;;;;;9.83;5.75;;;8.40;71.10;;;;;;1935021;74;21111;-48
2022/04/05 04:05:47;;;;;;;6.92;5.35;;;8.40;70.90;;;;;;1935679;74;21078;-50
2022/04/05 04:08:16;;;;;;;6.33;5.50;;;8.40;70.60;;;;;;1935734;74;21003;-49
2022/04/05 04:10:49;;;;;;;12.90;6.08;;;8.40;70.90;;;;;;1935548;74;21120;-53
2022/04/05 04:13:20;;;;;;;8.38;5.78;;;8.40;71.30;;;;;;1935504;74;21489;-52
2022/04/05 04:15:51;;;;;;;9.33;5.83;;;8.50;71.10;;;;;;1935690;74;21015;-51
2022/04/05 04:18:21;;;;;;;8.63;5.78;;;8.50;70.90;;;;;;1935721;74;21128;-51
2022/04/05 04:20:52;;;;;;;7.80;5.50;;;8.60;70.50;;;;;;1935773;74;21469;-51
2022/04/05 04:23:21;;;;;;;8.10;5.87;;;8.60;69.80;;;;;;1935984;74;21019;-53
2022/04/05 04:25:53;;;;;;;7.75;6.17;;;8.60;70.30;;;;;;1935295;74;21048;-51
2022/04/05 04:28:22;;;;;;;7.35;5.62;;;8.60;70.20;;;;;;1935679;74;21097;-51
2022/04/05 04:30:51;;;;;;;8.75;6.33;;;8.60;70.20;;;;;;1935656;74;21024;-52
2022/04/05 04:33:21;;;;;;;8.53;5.65;;;8.70;70.30;;;;;;1935702;74;20999;-52
2022/04/05 04:35:50;;;;;;;9.05;5.33;;;8.70;69.60;;;;;;1935703;74;21093;-49
2022/04/05 04:38:20;;;;;;;11.15;5.37;;;8.70;69.50;;;;;;1935718;74;21462;-52
2022/04/05 04:40:54;;;;;;;10.53;5.55;;;8.60;69.40;;;;;;1935803;74;21011;-51
2022/04/05 04:43:23;;;;;;;8.30;5.85;;;8.70;69.20;;;;;;1934399;74;21105;-51
2022/04/05 04:45:51;;;;;;;6.67;4.92;;;8.60;69.00;;;;;;1935878;74;21478;-52
2022/04/05 04:48:21;;;;;;;8.93;4.78;;;8.60;68.90;;;;;;1935832;74;21016;-52
2022/04/05 04:50:51;;;;;;;11.55;5.87;;;8.50;69.30;;;;;;1935696;74;21011;-50
2022/04/05 04:53:20;;;;;;;11.22;5.10;;;8.50;69.50;;;;;;1935686;74;20995;-53
2022/04/05 04:55:50;;;;;;;9.73;5.42;;;8.50;69.80;;;;;;1935676;74;21089;-54
2022/04/05 04:58:22;;;;;;;9.98;5.17;;;8.60;69.40;;;;;;1935879;74;21043;-50
2022/04/05 05:00:51;;;;;;;11.40;5.75;;;8.60;68.60;;;;;;1935831;74;21008;-54
2022/04/05 05:03:21;;;;;;;8.03;5.60;;;8.60;68.20;;;;;;1935822;74;21015;-52
2022/04/05 05:05:50;;;;;;;10.15;5.75;;;8.60;68.10;;;;;;1935805;74;21035;-52
2022/04/05 05:08:19;;;;;;;6.75;5.17;;;8.50;67.00;;;;;;1935673;74;21093;-50
2022/04/05 05:10:49;;;;;;;10.93;6.05;;;8.40;67.00;;;;;;1935733;74;21540;-53
2022/04/05 05:13:20;;;;;;;7.92;5.78;;;8.40;67.70;;;;;;1935741;74;21039;-53
2022/04/05 05:15:49;;;;;;;8.83;5.55;;;8.40;67.70;;;;;;1935663;74;21089;-53
2022/04/05 05:18:19;;;;;;;12.33;5.92;;;8.40;67.90;;;;;;1935669;74;21055;-50
2022/04/05 05:20:48;;;;;;;10.48;5.72;;;8.40;67.50;;;;;;1935738;74;21008;-53
2022/04/05 05:23:17;;;;;;;6.35;5.42;;;8.40;67.20;;;;;;1935699;74;21062;-52
2022/04/05 05:25:47;;;;;;;7.33;5.00;;;8.50;67.20;;;;;;1935648;74;21140;-53
2022/04/05 05:28:17;;;;;;;10.48;5.75;;;8.60;67.60;;;;;;1935488;74;21043;-52
2022/04/05 05:30:47;;;;;;;7.33;5.58;;;8.70;67.40;;;;;;1935354;74;21156;-52
2022/04/05 05:33:16;;;;;;;7.87;4.92;;;8.90;67.40;;;;;;1935705;74;21093;-51
2022/04/05 05:35:46;;;;;;;9.38;8.13;;;9.00;66.60;;;;;;1935735;74;21043;-53
2022/04/05 05:38:15;;;;;;;12.53;6.85;;;9.00;66.20;;;;;;1935662;74;21026;-53
2022/04/05 05:40:44;;;;;;;9.90;6.15;;;9.10;66.60;;;;;;1935689;74;21023;-50
2022/04/05 05:43:14;;;;;;;8.33;5.40;;;9.20;66.70;;;;;;1935569;74;21043;-53
2022/04/05 05:45:43;;;;;;;9.95;5.78;;;9.30;65.80;;;;;;1935810;74;21101;-53
2022/04/05 05:48:12;;;;;;;8.28;6.00;;;9.30;64.70;;;;;;1935667;74;21113;-52
2022/04/05 05:50:42;;;;;;;12.47;6.03;;;9.40;64.70;;;;;;1935715;74;21092;-51
2022/04/05 05:53:11;;;;;;;10.82;6.40;;;9.50;65.70;;;;;;1935785;74;21089;-53
2022/04/05 05:55:40;;;;;;;14.85;7.03;;;9.60;65.30;;;;;;1935699;74;21089;-53
2022/04/05 05:58:10;;;;;;;5.60;4.42;;;9.80;64.90;;;;;;1935891;74;21027;-52
2022/04/05 06:00:40;;;;;;;7.17;5.92;;;9.90;65.00;;;;;;1935789;74;21011;-51
2022/04/05 06:03:11;;;;;;;12.95;5.78;;;10.00;64.10;;;;;;1935583;74;21019;-52
2022/04/05 06:05:40;;;;;;;11.45;6.12;;;10.10;64.30;;;;;;1935879;74;21477;-52
2022/04/05 06:08:10;;;;;;;10.13;5.80;;;10.20;63.30;;;;;;1935569;74;21019;-51
2022/04/05 06:10:39;;;;;;;8.25;5.80;;;10.30;63.00;;;;;;1935609;74;21101;-52
2022/04/05 06:13:08;;;;;;;13.55;6.70;;;10.30;61.50;;;;;;1935608;74;20991;-51
2022/04/05 06:15:38;;;;;;;9.33;6.05;;;10.30;61.90;;;;;;1935812;74;21553;-53
2022/04/05 06:18:07;;;;;;;13.90;6.83;;;10.40;63.60;;;;;;1935646;74;21048;-53
2022/04/05 06:20:37;;;;;;;15.15;7.25;;;10.60;63.50;;;;;;1935704;73;21140;-53
2022/04/05 06:23:07;;;;;;;15.58;6.70;;;10.80;63.40;;;;;;1935645;74;21015;-52
2022/04/05 06:25:38;;;;;;;15.32;7.62;;;10.90;61.80;;;;;;1935729;74;20999;-53
2022/04/05 06:28:09;;;;;;;12.37;7.45;;;11.00;62.00;;;;;;1935604;74;21014;-52
2022/04/05 06:30:40;;;;;;;14.35;8.48;;;11.00;60.40;;;;;;1935570;74;20996;-50
2022/04/05 06:33:18;;;;;;;11.50;8.23;;;11.00;60.60;;;;;;1935692;74;21024;-53
2022/04/05 06:35:49;;;;;;;10.82;6.90;;;11.00;60.40;;;;;;1935681;74;21004;-52
2022/04/05 06:38:19;;;;;;;11.65;7.33;;;11.10;59.50;;;;;;1935733;74;21106;-53
2022/04/05 06:40:49;;;;;;;10.93;6.80;;;11.10;58.00;;;;;;1935748;74;21054;-53
2022/04/05 06:43:24;;;;;;;11.35;7.22;;;11.10;57.30;;;;;;1935674;74;21140;-53
2022/04/05 06:45:52;;;;;;;13.95;7.47;;;11.10;57.70;;;;;;1935818;74;21114;-54
2022/04/05 06:48:22;;;;;;;15.93;8.98;;;11.10;57.70;;;;;;1935681;74;21040;-54
2022/04/05 06:50:52;;;;;;;11.10;7.28;;;11.10;57.70;;;;;;1935742;74;21027;-51
2022/04/05 06:53:22;;;;;;;12.63;7.58;;;11.20;58.30;;;;;;1935681;74;21019;-51
2022/04/05 06:55:51;;;;;;;13.28;7.17;;;11.30;58.60;;;;;;1935880;74;21093;-51
2022/04/05 06:58:21;;;;;;;12.28;6.70;;;11.40;58.50;;;;;;1935713;74;21023;-53
2022/04/05 07:00:50;;;;;;;10.08;6.45;;;11.50;59.00;;;;;;1935694;74;20999;-53
2022/04/05 07:03:19;;;;;;;9.10;5.55;;;11.60;59.00;;;;;;1935633;74;21077;-50
2022/04/05 07:05:49;;;;;;;9.83;6.20;;;11.70;58.90;;;;;;1935581;74;21003;-51
2022/04/05 07:08:18;;;;;;;9.00;5.72;;;11.80;58.20;;;;;;1935682;74;21047;-51
2022/04/05 07:10:47;;;;;;;10.35;6.55;;;11.80;59.30;;;;;;1935544;74;21144;-54
2022/04/05 07:13:17;;;;;;;11.90;8.33;;;11.90;58.80;;;;;;1935626;74;20995;-52
2022/04/05 07:15:46;;;;;;;13.35;7.80;;;11.90;56.30;;;;;;1935741;74;21015;-53
2022/04/05 07:18:16;;;;;;;12.05;6.70;;;11.80;57.90;;;;;;1935593;74;21035;-54
2022/04/05 07:20:46;;;;;;;11.48;6.50;;;11.80;58.50;;;;;;1935200;73;21501;-52
2022/04/05 07:23:16;;;;;;;12.88;7.53;;;11.90;57.40;;;;;;1947731;74;21027;-53
2022/04/05 07:25:45;;;;;;;13.68;7.33;;;12.00;56.60;;;;;;1948695;74;21078;-53
2022/04/05 07:28:15;;;;;;;13.18;7.72;;;12.00;56.00;;;;;;1948685;74;21014;-52
2022/04/05 07:30:44;;;;;;;16.80;8.00;;;12.00;57.10;;;;;;1948751;74;21093;-53
2022/04/05 07:33:14;;;;;;;17.40;7.80;;;12.10;56.30;;;;;;1948811;74;21011;-53
2022/04/05 07:35:43;;;;;;;9.60;5.87;;;12.20;55.90;;;;;;1948725;74;21080;-51
2022/04/05 07:38:12;;;;;;;11.28;6.78;;;12.20;56.00;;;;;;1948725;74;21003;-53
2022/04/05 07:40:52;;;;;;;12.05;6.33;;;12.30;58.20;;;;;;1948737;73;21018;-53
2022/04/05 07:43:24;;;;;;;13.60;6.33;;;12.30;58.90;;;;;;1948491;74;21019;-50
2022/04/05 07:45:54;;;;;;;9.60;6.90;;;12.40;56.00;;;;;;1948630;74;21015;-50
2022/04/05 07:48:29;;;;;;;9.90;6.37;;;12.30;56.00;;;;;;1948592;74;21006;-51
2022/04/05 07:51:00;;;;;;;12.80;6.90;;;12.20;55.50;;;;;;1948857;74;21038;-52
2022/04/05 07:53:30;;;;;;;14.55;7.80;;;12.10;55.60;;;;;;1948789;73;21027;-53
2022/04/05 07:55:59;;;;;;;10.08;7.78;;;12.10;56.20;;;;;;1948971;74;21100;-51
2022/04/05 07:58:29;;;;;;;9.88;6.83;;;12.00;55.30;;;;;;1948669;74;21156;-51
2022/04/05 08:00:58;;;;;;;17.48;7.47;;;11.90;56.60;;;;;;1929611;74;21054;-50
2022/04/05 08:03:28;;;;;;;11.57;6.60;;;11.90;57.20;;;;;;1916385;74;21116;-51
2022/04/05 08:05:57;;;;;;;12.45;7.12;;;11.90;56.50;;;;;;1928200;74;21028;-52
2022/04/05 08:08:26;;;;;;;26.45;6.87;;;11.90;55.90;;;;;;1915427;74;21027;-49
2022/04/05 08:10:56;;;;;;;9.93;6.90;;;11.80;55.70;;;;;;1921086;74;21089;-51
2022/04/05 08:13:28;;;;;;;10.55;6.25;;;11.70;55.70;;;;;;1918696;74;21019;-54
2022/04/05 08:15:58;;;;;;;11.65;6.25;;;11.70;56.40;;;;;;1914180;75;21126;-52
2022/04/05 08:18:27;;;;;;;8.90;6.92;;;11.80;56.60;;;;;;1914826;75;21124;-53
2022/04/05 08:20:57;;;;;;;5.30;3.35;;;11.90;55.30;;;;;;1914860;75;21026;-48
2022/04/05 08:23:27;;;;;;;27.32;6.97;;;12.00;55.40;;;;;;1905446;75;21035;-48
2022/04/05 08:25:57;;;;;;;6.08;3.92;;;12.20;60.10;;;;;;1902277;75;21108;-48
2022/04/05 08:28:26;;;;;;;12.82;5.67;;;12.50;58.80;;;;;;1902180;75;21104;-48
2022/04/05 08:30:55;;;;;;;10.98;6.70;;;12.80;58.10;;;;;;1900735;75;21163;-49
2022/04/05 08:33:26;;;;;;;12.23;6.72;;;13.00;60.00;;;;;;1901665;75;21070;-47
2022/04/05 08:35:55;;;;;;;9.48;6.03;;;13.20;58.80;;;;;;1901713;75;21070;-48
2022/04/05 08:38:25;;;;;;;12.68;7.45;;;13.30;55.50;;;;;;1901379;75;21168;-49
2022/04/05 08:40:55;;;;;;;12.55;6.80;;;13.30;55.20;;;;;;1901634;75;21086;-49
2022/04/05 08:43:26;;;;;;;9.93;7.00;;;13.20;53.90;;;;;;1901565;75;21086;-49
2022/04/05 08:45:59;;;;;;;9.70;6.42;;;13.00;54.00;;;;;;1901513;75;21035;-49
2022/04/05 08:48:30;;;;;;;9.95;6.55;;;12.90;54.40;;;;;;1901721;75;21148;-51
2022/04/05 08:51:00;;;;;;;11.93;6.62;;;12.70;53.10;;;;;;1901437;75;21090;-48
2022/04/05 08:53:30;;;;;;;9.03;6.42;;;12.70;53.90;;;;;;1901337;75;21066;-48
2022/04/05 08:55:59;;;;;;;11.03;5.15;;;12.60;53.70;;;;;;1901497;75;21082;-48
2022/04/05 08:58:29;;;;;;;8.58;5.90;;;12.70;53.90;;;;;;1901428;75;21109;-49
2022/04/05 09:00:59;;;;;;;8.08;6.20;;;12.70;54.00;;;;;;1901535;75;21078;-48
2022/04/05 09:03:32;;;;;;;10.93;6.08;;;12.70;54.10;;;;;;1901362;75;21160;-49
2022/04/05 09:05:59;;;;;;;10.70;6.62;;;12.70;54.20;;;;;;1900257;75;21512;-49
2022/04/05 09:08:32;;;;;;;8.08;5.15;;;12.80;54.70;;;;;;1901111;75;21121;-50
2022/04/05 09:11:10;;;;;;;8.18;5.20;;;12.90;53.00;;;;;;1902069;75;21027;-49
2022/04/05 09:13:39;;;;;;;20.85;8.23;;;12.90;52.80;;;;;;1902165;75;21034;-49
2022/04/05 09:16:09;;;;;;;10.63;7.47;;;12.90;53.30;;;;;;1902164;75;21007;-50
2022/04/05 09:18:52;;;;;;;10.72;6.25;;;13.10;54.10;;;;;;1902177;75;21089;-48
2022/04/05 09:21:36;;;;;;;15.68;6.45;;;13.30;53.50;;;;;;1900770;75;21079;-48
2022/04/05 09:24:20;;;;;;;5.08;3.52;;;13.50;53.00;;;;;;1907302;75;21500;-47
2022/04/05 09:27:06;;;;;;;5.80;3.60;;;13.50;51.50;;;;;;1912771;75;21045;-48
2022/04/05 09:29:55;;;;;;;7.12;4.60;;;13.60;51.10;;;;;;1849151;77;21101;-48
2022/04/05 09:32:37;;;;;;;5.50;4.92;;;13.50;52.00;;;;;;1922450;74;21070;-47
2022/04/05 09:35:07;;;;;;;6.80;4.85;;;13.60;52.40;;;;;;1924218;74;21002;-46
2022/04/05 09:37:41;;;;;;;8.63;4.95;;;13.60;52.60;;;;;;1924178;74;21048;-46
2022/04/05 09:40:32;;;;;;;15.35;5.62;;;13.70;52.10;;;;;;1923243;74;21233;-47
2022/04/05 09:43:02;;;;;;;5.97;4.37;;;13.80;50.90;;;;;;1923995;74;21112;-46
2022/04/05 09:45:50;;;;;;;10.43;4.17;;;13.80;50.30;;;;;;1923733;74;21511;-46
2022/04/05 09:48:21;;;;;;;8.30;5.12;;;13.90;51.80;;;;;;1923808;74;21167;-47
2022/04/05 09:51:11;;;;;;;6.58;3.95;;;13.90;51.40;;;;;;1923574;74;21030;-48
2022/04/05 09:53:43;;;;;;;6.62;4.37;;;13.90;51.70;;;;;;1888759;74;21005;-47
2022/04/05 09:56:22;;;;;;;8.93;4.87;;;13.80;52.80;;;;;;1923818;74;21045;-47
2022/04/05 09:59:06;;;;;;;10.82;4.72;;;13.90;53.00;;;;;;1923589;74;21045;-48
2022/04/05 10:01:31;;;;;;;8.43;4.53;;;13.90;53.30;;;;;;1922242;74;21069;-48
2022/04/05 10:04:03;;;;;;;10.50;4.30;;;13.90;52.60;;;;;;1923549;74;21034;-54
2022/04/05 10:06:35;;;;;;;9.00;3.83;;;13.90;52.40;;;;;;1922477;74;21006;-55
2022/04/05 10:09:05;;;;;;;6.53;3.90;;;13.90;52.60;;;;;;1923017;74;21022;-54
2022/04/05 10:11:37;;;;;;;6.22;4.30;;;14.00;53.10;;;;;;1923496;74;21047;-49
2022/04/05 10:14:07;;;;;;;10.75;5.53;;;14.00;53.20;;;;;;1923614;73;21485;-46
2022/04/05 10:16:37;;;;;;;5.62;4.45;;;14.00;53.20;;;;;;1848771;77;21110;-47
2022/04/05 10:19:09;;;;;;;7.22;4.78;;;14.10;53.40;;;;;;1923401;74;21030;-46
2022/04/05 10:21:45;;;;;;;9.25;6.22;;;14.10;51.80;;;;;;1848045;77;21102;-47
2022/04/05 10:24:12;;;;;;;12.65;7.40;;;14.00;53.00;;;;;;1915270;74;21129;-52
2022/04/05 10:26:44;;;;;;;21.42;9.55;;;14.00;52.40;;;;;;1857495;76;21050;-52
2022/04/05 10:29:18;;;;;;;11.12;8.00;;;14.10;52.70;;;;;;1825132;78;21132;-49
2022/04/05 10:32:02;;;;;;;18.25;6.83;;;14.10;52.90;;;;;;1857738;77;21187;-48
2022/04/05 10:34:50;;;;;;;15.83;5.53;;;14.20;51.60;;;;;;1825121;78;21097;-46
2022/04/05 10:37:21;;;;;;;11.75;5.55;;;14.10;51.60;;;;;;1857490;76;21034;-47
2022/04/05 10:40:02;;;;;;;15.43;7.83;;;14.10;52.00;;;;;;1824321;78;21101;-47
2022/04/05 10:42:49;;;;;;;10.80;7.33;;;14.10;51.00;;;;;;1857434;76;21832;-47
2022/04/05 10:45:20;;;;;;;5.67;4.22;;;14.10;51.00;;;;;;1825036;77;21046;-46
2022/04/05 10:48:16;;;;;;;6.45;4.80;;;14.10;51.10;;;;;;1857487;77;21057;-47
2022/04/05 10:50:47;;;;;;;9.73;5.87;;;14.10;51.20;;;;;;1825137;78;21050;-45
2022/04/05 10:53:21;;;;;;;6.55;4.12;;;14.20;52.00;;;;;;1857618;76;21038;-47
2022/04/05 10:56:14;;;;;;;9.00;5.70;;;14.40;51.90;;;;;;1825277;78;21175;-47
2022/04/05 10:58:47;;;;;;;5.65;3.90;;;14.40;50.60;;;;;;1855804;77;21326;-48
2022/04/05 11:01:19;;;;;;;6.20;4.70;;;14.60;49.40;;;;;;1857438;76;21113;-47
2022/04/05 11:04:16;;;;;;;6.67;4.70;;;14.60;50.20;;;;;;1857502;76;21086;-52
2022/04/05 11:07:09;;;;;;;7.65;4.42;;;14.70;49.70;;;;;;1857528;77;21042;-51
2022/04/05 11:09:53;;;;;;;6.53;3.90;;;14.70;50.20;;;;;;1857472;77;21077;-48
2022/04/05 11:12:30;;;;;;;8.45;5.17;;;14.60;50.20;;;;;;1857503;77;21127;-48
2022/04/05 11:15:09;;;;;;;6.83;4.45;;;14.60;49.40;;;;;;1857655;77;21294;-49
2022/04/05 11:17:39;;;;;;;6.97;4.62;;;14.60;49.00;;;;;;1857111;77;21105;-53
2022/04/05 11:20:14;;;;;;;7.60;4.40;;;14.50;49.50;;;;;;1857145;76;21094;-52
2022/04/05 11:22:43;;;;;;;7.95;4.72;;;14.40;47.60;;;;;;1857683;76;21542;-47
2022/04/05 11:25:18;;;;;;;7.05;4.58;;;14.30;48.00;;;;;;1824515;77;21125;-48
2022/04/05 11:27:50;;;;;;;12.68;5.05;;;14.20;49.00;;;;;;1809984;78;21120;-50
2022/04/05 11:30:27;;;;;;;7.12;4.62;;;14.10;49.10;;;;;;1849302;77;21039;-49
2022/04/05 11:33:17;;;;;;;46.48;8.55;;;14.10;49.80;;;;;;1842964;78;21152;-48
2022/04/05 11:35:52;;;;;;;6.85;4.33;;;14.00;49.40;;;;;;1812430;78;21133;-49
2022/04/05 11:38:29;;;;;;;10.60;4.62;;;14.00;49.90;;;;;;1842950;78;21499;-49
2022/04/05 11:41:04;;;;;;;11.97;5.22;;;14.10;50.30;;;;;;1822194;79;21037;-49
2022/04/05 11:43:42;;;;;;;7.53;4.65;;;14.10;50.80;;;;;;1823320;79;21062;-53
2022/04/05 11:46:14;;;;;;;6.58;4.42;;;14.20;51.20;;;;;;1833567;78;21167;-49
2022/04/05 11:48:45;;;;;;;26.23;5.50;;;14.30;51.00;;;;;;1810955;79;21018;-49
2022/04/05 11:51:17;;;;;;;4.78;3.65;;;14.40;49.40;;;;;;1811121;79;21085;-47
2022/04/05 11:53:47;;;;;;;6.87;3.20;;;14.30;49.50;;;;;;1811220;79;21046;-49
2022/04/05 11:56:21;;;;;;;6.62;3.90;;;14.30;50.00;;;;;;1811187;79;21074;-49
2022/04/05 11:58:55;;;;;;;6.40;3.58;;;14.30;49.90;;;;;;1811282;79;21182;-49
2022/04/05 12:01:28;;;;;;;4.40;3.23;;;14.20;49.70;;;;;;1811548;79;21054;-49
2022/04/05 12:03:59;;;;;;;4.95;2.67;;;14.30;49.90;;;;;;1811105;79;21109;-48
2022/04/05 12:06:34;;;;;;;3.37;2.87;;;14.30;50.10;;;;;;1810450;79;21074;-49
2022/04/05 12:09:06;;;;;;;10.45;3.70;;;14.30;50.30;;;;;;1843064;77;21055;-48
2022/04/05 12:11:37;;;;;;;4.08;3.15;;;14.30;50.60;;;;;;1849228;76;21190;-55
2022/04/05 12:14:13;;;;;;;5.55;3.55;;;14.30;50.60;;;;;;1843000;78;21042;-56
2022/04/05 12:16:56;;;;;;;3.40;3.08;;;14.30;49.90;;;;;;1841313;78;21042;-56
2022/04/05 12:19:40;;;;;;;13.60;11.20;;;14.30;50.10;;;;;;1812380;79;21022;-55
2022/04/05 12:22:11;;;;;;;10.18;5.60;;;14.30;49.90;;;;;;1835142;78;21182;-55
2022/04/05 12:24:50;;;;;;;7.45;5.20;;;14.30;50.30;;;;;;1839890;76;21183;-57
2022/04/05 12:27:17;;;;;;;7.78;3.30;;;14.30;49.90;;;;;;1855868;77;21084;-54
2022/04/05 12:29:46;;;;;;;8.15;3.30;;;14.30;49.50;;;;;;1856867;77;22266;-55
2022/04/05 12:32:16;;;;;;;10.70;3.50;;;14.20;49.60;;;;;;1857146;77;21088;-49
2022/04/05 12:34:45;;;;;;;4.10;3.20;;;14.20;49.60;;;;;;1856715;77;21014;-53
2022/04/05 12:37:16;;;;;;;7.20;3.47;;;14.10;49.80;;;;;;1856893;76;21077;-52
2022/04/05 12:39:54;;;;;;;6.87;3.55;;;14.10;49.80;;;;;;1845716;76;21120;-53
2022/04/05 12:42:22;;;;;;;11.68;4.42;;;14.10;49.80;;;;;;1901322;75;21045;-52
2022/04/05 12:44:59;;;;;;;4.95;3.40;;;14.10;49.60;;;;;;1901418;75;21123;-51
2022/04/05 12:47:28;;;;;;;4.90;3.05;;;14.10;49.70;;;;;;1901545;75;21028;-54
2022/04/05 12:50:02;;;;;;;6.75;5.10;;;14.10;49.90;;;;;;1901434;75;21080;-54
2022/04/05 12:52:32;;;;;;;5.55;3.72;;;14.10;49.60;;;;;;1901510;75;21068;-49
2022/04/05 12:55:04;;;;;;;6.60;3.52;;;14.10;49.90;;;;;;1901144;75;21068;-52
2022/04/05 12:57:38;;;;;;;3.65;3.02;;;14.20;49.80;;;;;;1901698;75;21021;-52
2022/04/05 13:00:16;;;;;;;4.33;2.60;;;14.30;49.70;;;;;;1901545;75;21076;-55
2022/04/05 13:02:59;;;;;;;5.10;3.08;;;14.40;49.10;;;;;;1901182;75;21092;-52
2022/04/05 13:07:57;;;;;;;7.72;3.22;;;;;;;;;;1882374;75;21060;-54
2022/04/05 13:10:33;;;;;;;5.53;3.00;;;;;;;;;;1901297;75;21021;-54
2022/04/05 13:13:22;;;;;;;3.55;2.72;;;;;;;;;;1900802;75;21173;-52